Zagreb — 9AA5910 — position and weather

sailwx.info

Track history (hours):
 
Tides and Currents Weather Stations Pressure Air Temp Water Temp Dewpoint Dewpoint Depression Visibility Wind Speed Wind Dir Waves Ship Positions

Zagreb

Last reported at 2016-Jun-30 00:30 UTC. Time now 2016-Jun-30 08:46 UTC.
Position N 49°35' W 004°04'.

Length 229 m; draft 14.3 m.

Type: Cargo ship. MMSI: 238249000.

Date/timePositionNaut miles runAvg speedWind from/ knotsBaromVisibWave heightAir tempDewpointWater temp
2016-Jun-30 00:30N 49°35' W 004°04'2110.7
2016-Jun-29 22:33N 49°46' W 003°36'1212.1
2016-Jun-29 21:33N 49°52' W 003°20'1312.9
2016-Jun-29 20:33N 49°59' W 003°03'1312.8
2016-Jun-29 19:33N 50°03' W 002°44'8410.2
2016-Jun-29 11:20N 50°25' W 000°37'1012.6
2016-Jun-29 10:33N 50°28' W 000°22'1312.7
2016-Jun-29 09:32N 50°32' W 000°03'1212.3
2016-Jun-29 08:33N 50°35' E 000°15'1411.7
2016-Jun-29 07:21N 50°39' E 000°36'2910.3
2016-Jun-29 04:33N 50°56' E 001°13'1010.0
2016-Jun-29 03:33N 51°03' E 001°25'1211.5
2016-Jun-29 02:33N 51°10' E 001°39'1212.2
2016-Jun-29 01:33N 51°20' E 001°50'1211.6
2016-Jun-29 00:33N 51°30' E 002°00'1111.1
2016-Jun-28 23:33N 51°38' E 002°12'7410.6
2016-Jun-28 16:33N 52°44' E 003°07'1413.0
2016-Jun-28 15:27N 52°57' E 003°17'32211.5
2016-Jun-27 11:29N 57°25' E 008°32'1111.0
2016-Jun-27 10:30N 57°33' E 008°45'6210.4
2016-Jun-27 04:33N 57°50' E 010°36'8 8.0
2016-Jun-27 03:33N 57°45' E 010°47'1111.1
2016-Jun-27 02:33N 57°37' E 011°02'1111.4
2016-Jun-27 01:33N 57°31' E 011°20'1010.5
2016-Jun-27 00:33N 57°22' E 011°30'1111.0
2016-Jun-26 23:33N 57°11' E 011°36'1111.1
2016-Jun-26 22:33N 57°01' E 011°44'1110.7
2016-Jun-26 21:33N 56°51' E 011°50'12 9.9
2016-Jun-26 20:23N 56°39' E 011°48'911.1
2016-Jun-26 19:32N 56°31' E 011°39'3411.1
2016-Jun-26 16:30N 56°03' E 011°07'46 9.3
2016-Jun-26 11:33N 55°17' E 011°04'9 8.8
2016-Jun-26 10:33N 55°08' E 010°60'1110.5
2016-Jun-26 09:33N 54°58' E 010°57'10 9.6
2016-Jun-26 08:33N 54°49' E 010°50'9 9.5
2016-Jun-26 07:33N 54°40' E 010°49'1010.1
2016-Jun-26 06:33N 54°36' E 011°05'1010.0
2016-Jun-26 05:33N 54°33' E 011°22'1010.4
2016-Jun-26 04:33N 54°28' E 011°38'10 9.7
2016-Jun-26 03:33N 54°27' E 011°54'10 9.7
2016-Jun-26 02:33N 54°27' E 012°11'30 9.7
2016-Jun-25 23:28N 54°48' E 012°48'1010.0
2016-Jun-25 22:28N 54°52' E 013°04'9 9.8
2016-Jun-25 21:30N 54°56' E 013°19'1212.4
2016-Jun-25 20:33N 54°59' E 013°39'1212.2
2016-Jun-25 19:33N 55°03' E 013°59'1211.6
2016-Jun-25 18:33N 55°11' E 014°14'1211.9
2016-Jun-25 17:33N 55°20' E 014°27'1211.9
2016-Jun-25 16:33N 55°28' E 014°42'1212.2
2016-Jun-25 15:33N 55°34' E 015°02'1212.2
2016-Jun-25 14:33N 55°39' E 015°21'1212.4
2016-Jun-25 13:34N 55°42' E 015°42'2412.0
2016-Jun-25 11:33N 55°48' E 016°24'1212.2
2016-Jun-25 10:33N 55°51' E 016°45'1212.1
2016-Jun-25 09:33N 55°54' E 017°06'1212.1
2016-Jun-25 08:33N 55°57' E 017°27'28011.7
2016-Jun-24 08:32N 59°35' E 022°58'1212.0
2016-Jun-24 07:32N 59°38' E 023°20'3511.9
2016-Jun-24 04:33N 59°47' E 024°28'3612.0
2016-Jun-24 01:33N 59°54' E 025°38'1512.0
2016-Jun-24 00:19N 59°58' E 026°07'912.1
2016-Jun-23 23:33N 60°00' E 026°25'1211.7
2016-Jun-23 22:33N 60°01' E 026°48'1111.3
2016-Jun-23 21:33N 60°02' E 027°11'1312.1
2016-Jun-23 20:27N 60°08' E 027°33'1111.1
2016-Jun-23 19:28N 60°11' E 027°55'1111.9
2016-Jun-23 18:33N 60°09' E 028°16'1211.5
2016-Jun-23 17:33N 60°02' E 028°35'9 8.6
2016-Jun-23 16:33N 59°53' E 028°30'10 9.6
2016-Jun-23 15:33N 59°44' E 028°25'3 2.6
2016-Jun-23 14:33N 59°41' E 028°25'0 0.0
2016-Jun-23 13:22N 59°41' E 028°25'0 0.0
2016-Jun-23 12:22N 59°41' E 028°25'0 0.0
2016-Jun-23 11:25N 59°41' E 028°25'0 0.0
2016-Jun-23 10:34N 59°41' E 028°25'0 0.0
2016-Jun-23 09:25N 59°41' E 028°25'0 0.0
2016-Jun-23 08:25N 59°41' E 028°25'0 0.0
2016-Jun-23 07:28N 59°41' E 028°25'0 0.0
2016-Jun-23 05:31N 59°41' E 028°25'0 0.0
2016-Jun-23 04:31N 59°41' E 028°25'0 0.0
2016-Jun-23 03:31N 59°41' E 028°25'0 0.0
2016-Jun-23 02:31N 59°41' E 028°25'0 0.0
2016-Jun-23 01:30N 59°41' E 028°25'0 0.0
2016-Jun-23 00:34N 59°41' E 028°25'0 0.0
2016-Jun-22 23:34N 59°41' E 028°25'0 0.0
2016-Jun-22 22:34N 59°41' E 028°25'0 0.0
2016-Jun-22 21:22N 59°41' E 028°25'0 0.0
2016-Jun-22 20:22N 59°41' E 028°25'0 0.0
2016-Jun-22 19:34N 59°41' E 028°25'0 0.0
2016-Jun-22 18:33N 59°41' E 028°25'0 0.0
2016-Jun-22 17:25N 59°41' E 028°25'0 0.0
2016-Jun-22 16:28N 59°41' E 028°25'0 0.0
2016-Jun-22 15:28N 59°41' E 028°25'0 0.1
2016-Jun-22 14:16N 59°41' E 028°25'0 0.0
2016-Jun-22 13:31N 59°41' E 028°25'0 0.0
2016-Jun-22 12:30N 59°41' E 028°25'0 0.0
2016-Jun-22 11:34N 59°41' E 028°25'0 0.0
2016-Jun-22 10:33N 59°41' E 028°25'0 0.0
2016-Jun-22 09:33N 59°41' E 028°25'0 0.0
2016-Jun-22 08:33N 59°41' E 028°25'0 0.0
2016-Jun-22 07:33N 59°41' E 028°25'0 0.0
2016-Jun-22 06:33N 59°41' E 028°25'0 0.0
2016-Jun-22 05:33N 59°41' E 028°25'0 0.0
2016-Jun-22 04:33N 59°41' E 028°25'0 0.0
2016-Jun-22 03:24N 59°41' E 028°25'0 0.0
2016-Jun-22 02:27N 59°41' E 028°25'0 0.0
2016-Jun-22 01:27N 59°41' E 028°25'0 0.0
2016-Jun-22 00:24N 59°41' E 028°25'0 0.0
2016-Jun-21 23:27N 59°41' E 028°25'0 0.0
2016-Jun-21 22:30N 59°41' E 028°25'0 0.0
2016-Jun-21 21:30N 59°41' E 028°25'0 0.0
2016-Jun-21 20:33N 59°41' E 028°25'0 0.0
2016-Jun-21 19:33N 59°41' E 028°25'0 0.0
2016-Jun-21 18:33N 59°41' E 028°25'0 0.0
2016-Jun-21 17:33N 59°41' E 028°25'0 0.0
2016-Jun-21 16:33N 59°41' E 028°25'0 0.0
2016-Jun-21 15:21N 59°41' E 028°25'0 0.0
2016-Jun-21 14:33N 59°41' E 028°25'0 0.0
2016-Jun-21 13:33N 59°41' E 028°25'0 0.0
2016-Jun-21 12:33N 59°41' E 028°25'0 0.0
2016-Jun-21 11:21N 59°41' E 028°25'0 0.0
2016-Jun-21 10:27N 59°41' E 028°25'0 0.0
2016-Jun-21 09:27N 59°41' E 028°25'0 0.0
2016-Jun-21 08:30N 59°41' E 028°25'0 0.0
2016-Jun-21 07:30N 59°41' E 028°25'0 0.0
2016-Jun-21 05:33N 59°41' E 028°25'0 0.0
2016-Jun-21 04:33N 59°41' E 028°25'0 0.0
2016-Jun-21 03:33N 59°41' E 028°25'0 0.0
2016-Jun-21 02:33N 59°41' E 028°25'0 0.0
2016-Jun-21 01:33N 59°41' E 028°25'0 0.0
2016-Jun-20 23:06N 59°41' E 028°25'0 0.0
2016-Jun-20 22:33N 59°41' E 028°25'0 0.0
2016-Jun-20 21:33N 59°41' E 028°25'0 0.0
2016-Jun-20 20:27N 59°41' E 028°25'0 0.0
2016-Jun-20 19:27N 59°41' E 028°25'0 0.0
2016-Jun-20 16:21N 59°41' E 028°25'0 0.0
2016-Jun-20 15:33N 59°41' E 028°25'0 0.0
2016-Jun-20 14:24N 59°41' E 028°25'0 0.0
2016-Jun-20 13:24N 59°41' E 028°25'0 0.0
2016-Jun-20 12:27N 59°41' E 028°25'0 0.0
2016-Jun-20 11:27N 59°41' E 028°25'0 0.0
2016-Jun-20 10:27N 59°41' E 028°25'0 0.0
2016-Jun-20 09:30N 59°41' E 028°25'0 0.0
2016-Jun-20 08:30N 59°41' E 028°25'0 0.0
2016-Jun-20 07:30N 59°41' E 028°25'0 0.0
2016-Jun-20 06:30N 59°41' E 028°25'0 0.0
2016-Jun-20 05:32N 59°41' E 028°25'0 0.0
2016-Jun-20 04:33N 59°41' E 028°25'0 0.0
2016-Jun-20 03:33N 59°41' E 028°25'0 0.0
2016-Jun-20 02:33N 59°41' E 028°25'0 0.0
2016-Jun-20 01:33N 59°41' E 028°25'0 0.0
2016-Jun-20 00:33N 59°41' E 028°25'  
Track history (hours):
 
Tides and Currents Weather Stations Pressure Air Temp Water Temp Dewpoint Dewpoint Depression Visibility Wind Speed Wind Dir Waves Ship Positions

Zagreb

Last reported at 2016-Jun-30 00:30 UTC. Time now 2016-Jun-30 08:46 UTC.
Position N 49°35' W 004°04'.

Length 229 m; draft 14.3 m.

Type: Cargo ship. MMSI: 238249000.

Date/timePositionNaut miles runAvg speedWind from/ knotsBaromVisibWave heightAir tempDewpointWater temp
2016-Jun-30 00:30N 49°35' W 004°04'2110.7
2016-Jun-29 22:33N 49°46' W 003°36'1212.1
2016-Jun-29 21:33N 49°52' W 003°20'1312.9
2016-Jun-29 20:33N 49°59' W 003°03'1312.8
2016-Jun-29 19:33N 50°03' W 002°44'8410.2
2016-Jun-29 11:20N 50°25' W 000°37'1012.6
2016-Jun-29 10:33N 50°28' W 000°22'1312.7
2016-Jun-29 09:32N 50°32' W 000°03'1212.3
2016-Jun-29 08:33N 50°35' E 000°15'1411.7
2016-Jun-29 07:21N 50°39' E 000°36'2910.3
2016-Jun-29 04:33N 50°56' E 001°13'1010.0
2016-Jun-29 03:33N 51°03' E 001°25'1211.5
2016-Jun-29 02:33N 51°10' E 001°39'1212.2
2016-Jun-29 01:33N 51°20' E 001°50'1211.6
2016-Jun-29 00:33N 51°30' E 002°00'1111.1
2016-Jun-28 23:33N 51°38' E 002°12'7410.6
2016-Jun-28 16:33N 52°44' E 003°07'1413.0
2016-Jun-28 15:27N 52°57' E 003°17'32211.5
2016-Jun-27 11:29N 57°25' E 008°32'1111.0
2016-Jun-27 10:30N 57°33' E 008°45'6210.4
2016-Jun-27 04:33N 57°50' E 010°36'8 8.0
2016-Jun-27 03:33N 57°45' E 010°47'1111.1
2016-Jun-27 02:33N 57°37' E 011°02'1111.4
2016-Jun-27 01:33N 57°31' E 011°20'1010.5
2016-Jun-27 00:33N 57°22' E 011°30'1111.0
2016-Jun-26 23:33N 57°11' E 011°36'1111.1
2016-Jun-26 22:33N 57°01' E 011°44'1110.7
2016-Jun-26 21:33N 56°51' E 011°50'12 9.9
2016-Jun-26 20:23N 56°39' E 011°48'911.1
2016-Jun-26 19:32N 56°31' E 011°39'3411.1
2016-Jun-26 16:30N 56°03' E 011°07'46 9.3
2016-Jun-26 11:33N 55°17' E 011°04'9 8.8
2016-Jun-26 10:33N 55°08' E 010°60'1110.5
2016-Jun-26 09:33N 54°58' E 010°57'10 9.6
2016-Jun-26 08:33N 54°49' E 010°50'9 9.5
2016-Jun-26 07:33N 54°40' E 010°49'1010.1
2016-Jun-26 06:33N 54°36' E 011°05'1010.0
2016-Jun-26 05:33N 54°33' E 011°22'1010.4
2016-Jun-26 04:33N 54°28' E 011°38'10 9.7
2016-Jun-26 03:33N 54°27' E 011°54'10 9.7
2016-Jun-26 02:33N 54°27' E 012°11'30 9.7
2016-Jun-25 23:28N 54°48' E 012°48'1010.0
2016-Jun-25 22:28N 54°52' E 013°04'9 9.8
2016-Jun-25 21:30N 54°56' E 013°19'1212.4
2016-Jun-25 20:33N 54°59' E 013°39'1212.2
2016-Jun-25 19:33N 55°03' E 013°59'1211.6
2016-Jun-25 18:33N 55°11' E 014°14'1211.9
2016-Jun-25 17:33N 55°20' E 014°27'1211.9
2016-Jun-25 16:33N 55°28' E 014°42'1212.2
2016-Jun-25 15:33N 55°34' E 015°02'1212.2
2016-Jun-25 14:33N 55°39' E 015°21'1212.4
2016-Jun-25 13:34N 55°42' E 015°42'2412.0
2016-Jun-25 11:33N 55°48' E 016°24'1212.2
2016-Jun-25 10:33N 55°51' E 016°45'1212.1
2016-Jun-25 09:33N 55°54' E 017°06'1212.1
2016-Jun-25 08:33N 55°57' E 017°27'28011.7
2016-Jun-24 08:32N 59°35' E 022°58'1212.0
2016-Jun-24 07:32N 59°38' E 023°20'3511.9
2016-Jun-24 04:33N 59°47' E 024°28'3612.0
2016-Jun-24 01:33N 59°54' E 025°38'1512.0
2016-Jun-24 00:19N 59°58' E 026°07'912.1
2016-Jun-23 23:33N 60°00' E 026°25'1211.7
2016-Jun-23 22:33N 60°01' E 026°48'1111.3
2016-Jun-23 21:33N 60°02' E 027°11'1312.1
2016-Jun-23 20:27N 60°08' E 027°33'1111.1
2016-Jun-23 19:28N 60°11' E 027°55'1111.9
2016-Jun-23 18:33N 60°09' E 028°16'1211.5
2016-Jun-23 17:33N 60°02' E 028°35'9 8.6
2016-Jun-23 16:33N 59°53' E 028°30'10 9.6
2016-Jun-23 15:33N 59°44' E 028°25'3 2.6
2016-Jun-23 14:33N 59°41' E 028°25'0 0.0
2016-Jun-23 13:22N 59°41' E 028°25'0 0.0
2016-Jun-23 12:22N 59°41' E 028°25'0 0.0
2016-Jun-23 11:25N 59°41' E 028°25'0 0.0
2016-Jun-23 10:34N 59°41' E 028°25'0 0.0
2016-Jun-23 09:25N 59°41' E 028°25'0 0.0
2016-Jun-23 08:25N 59°41' E 028°25'0 0.0
2016-Jun-23 07:28N 59°41' E 028°25'0 0.0
2016-Jun-23 05:31N 59°41' E 028°25'0 0.0
2016-Jun-23 04:31N 59°41' E 028°25'0 0.0
2016-Jun-23 03:31N 59°41' E 028°25'0 0.0
2016-Jun-23 02:31N 59°41' E 028°25'0 0.0
2016-Jun-23 01:30N 59°41' E 028°25'0 0.0
2016-Jun-23 00:34N 59°41' E 028°25'0 0.0
2016-Jun-22 23:34N 59°41' E 028°25'0 0.0
2016-Jun-22 22:34N 59°41' E 028°25'0 0.0
2016-Jun-22 21:22N 59°41' E 028°25'0 0.0
2016-Jun-22 20:22N 59°41' E 028°25'0 0.0
2016-Jun-22 19:34N 59°41' E 028°25'0 0.0
2016-Jun-22 18:33N 59°41' E 028°25'0 0.0
2016-Jun-22 17:25N 59°41' E 028°25'0 0.0
2016-Jun-22 16:28N 59°41' E 028°25'0 0.0
2016-Jun-22 15:28N 59°41' E 028°25'0 0.1
2016-Jun-22 14:16N 59°41' E 028°25'0 0.0
2016-Jun-22 13:31N 59°41' E 028°25'0 0.0
2016-Jun-22 12:30N 59°41' E 028°25'0 0.0
2016-Jun-22 11:34N 59°41' E 028°25'0 0.0
2016-Jun-22 10:33N 59°41' E 028°25'0 0.0
2016-Jun-22 09:33N 59°41' E 028°25'0 0.0
2016-Jun-22 08:33N 59°41' E 028°25'0 0.0
2016-Jun-22 07:33N 59°41' E 028°25'0 0.0
2016-Jun-22 06:33N 59°41' E 028°25'0 0.0
2016-Jun-22 05:33N 59°41' E 028°25'0 0.0
2016-Jun-22 04:33N 59°41' E 028°25'0 0.0
2016-Jun-22 03:24N 59°41' E 028°25'0 0.0
2016-Jun-22 02:27N 59°41' E 028°25'0 0.0
2016-Jun-22 01:27N 59°41' E 028°25'0 0.0
2016-Jun-22 00:24N 59°41' E 028°25'0 0.0
2016-Jun-21 23:27N 59°41' E 028°25'0 0.0
2016-Jun-21 22:30N 59°41' E 028°25'0 0.0
2016-Jun-21 21:30N 59°41' E 028°25'0 0.0
2016-Jun-21 20:33N 59°41' E 028°25'0 0.0
2016-Jun-21 19:33N 59°41' E 028°25'0 0.0
2016-Jun-21 18:33N 59°41' E 028°25'0 0.0
2016-Jun-21 17:33N 59°41' E 028°25'0 0.0
2016-Jun-21 16:33N 59°41' E 028°25'0 0.0
2016-Jun-21 15:21N 59°41' E 028°25'0 0.0
2016-Jun-21 14:33N 59°41' E 028°25'0 0.0
2016-Jun-21 13:33N 59°41' E 028°25'0 0.0
2016-Jun-21 12:33N 59°41' E 028°25'0 0.0
2016-Jun-21 11:21N 59°41' E 028°25'0 0.0
2016-Jun-21 10:27N 59°41' E 028°25'0 0.0
2016-Jun-21 09:27N 59°41' E 028°25'0 0.0
2016-Jun-21 08:30N 59°41' E 028°25'0 0.0
2016-Jun-21 07:30N 59°41' E 028°25'0 0.0
2016-Jun-21 05:33N 59°41' E 028°25'0 0.0
2016-Jun-21 04:33N 59°41' E 028°25'0 0.0
2016-Jun-21 03:33N 59°41' E 028°25'0 0.0
2016-Jun-21 02:33N 59°41' E 028°25'0 0.0
2016-Jun-21 01:33N 59°41' E 028°25'0 0.0
2016-Jun-20 23:06N 59°41' E 028°25'0 0.0
2016-Jun-20 22:33N 59°41' E 028°25'0 0.0
2016-Jun-20 21:33N 59°41' E 028°25'0 0.0
2016-Jun-20 20:27N 59°41' E 028°25'0 0.0
2016-Jun-20 19:27N 59°41' E 028°25'0 0.0
2016-Jun-20 16:21N 59°41' E 028°25'0 0.0
2016-Jun-20 15:33N 59°41' E 028°25'0 0.0
2016-Jun-20 14:24N 59°41' E 028°25'0 0.0
2016-Jun-20 13:24N 59°41' E 028°25'0 0.0
2016-Jun-20 12:27N 59°41' E 028°25'0 0.0
2016-Jun-20 11:27N 59°41' E 028°25'0 0.0
2016-Jun-20 10:27N 59°41' E 028°25'0 0.0
2016-Jun-20 09:30N 59°41' E 028°25'0 0.0
2016-Jun-20 08:30N 59°41' E 028°25'0 0.0
2016-Jun-20 07:30N 59°41' E 028°25'0 0.0
2016-Jun-20 06:30N 59°41' E 028°25'0 0.0
2016-Jun-20 05:32N 59°41' E 028°25'0 0.0
2016-Jun-20 04:33N 59°41' E 028°25'0 0.0
2016-Jun-20 03:33N 59°41' E 028°25'0 0.0
2016-Jun-20 02:33N 59°41' E 028°25'0 0.0
2016-Jun-20 01:33N 59°41' E 028°25'0 0.0
2016-Jun-20 00:33N 59°41' E 028°25'  

Dump ship's entire track history